createdAt,value
2018-10-11T00:00:35.320Z,101580.20
2018-10-11T00:03:02.253Z,101581.23
2018-10-11T00:05:29.165Z,101579.83
2018-10-11T00:07:56.086Z,101580.00
2018-10-11T00:10:22.998Z,101574.35
2018-10-11T00:12:49.935Z,101574.03
2018-10-11T00:15:16.853Z,101568.34
2018-10-11T00:17:43.769Z,101567.20
2018-10-11T00:20:10.784Z,101567.09
2018-10-11T00:22:37.601Z,101560.48
2018-10-11T00:25:04.529Z,101560.37
2018-10-11T00:27:31.446Z,101565.36
2018-10-11T00:29:58.360Z,101564.83
2018-10-11T00:32:25.270Z,101564.39
2018-10-11T00:34:52.205Z,101563.95
2018-10-11T00:37:19.120Z,101568.19
2018-10-11T00:39:46.040Z,101562.66
2018-10-11T00:42:12.974Z,101557.44
2018-10-11T00:44:39.931Z,101556.67
2018-10-11T00:47:07.107Z,101550.16
2018-10-11T00:49:34.064Z,101552.02
2018-10-11T00:52:00.974Z,101555.11
2018-10-11T00:54:27.901Z,101549.45
2018-10-11T00:56:54.835Z,101551.52
2018-10-11T00:59:21.758Z,101542.80
2018-10-11T01:01:48.662Z,101543.00
2018-10-11T01:04:15.601Z,101534.81
2018-10-11T01:06:42.531Z,101535.14
2018-10-11T01:09:10.796Z,101533.58
2018-10-11T01:11:37.694Z,101529.72
2018-10-11T01:14:04.653Z,101525.66
2018-10-11T01:16:31.586Z,101516.61
2018-10-11T01:18:58.525Z,101524.12
2018-10-11T01:21:25.466Z,101520.05
2018-10-11T01:23:52.441Z,101524.44
2018-10-11T01:26:19.362Z,101526.83
2018-10-11T01:28:53.125Z,101518.70
2018-10-11T01:31:21.959Z,101506.94
2018-10-11T01:33:48.965Z,101498.11
2018-10-11T01:36:15.909Z,101501.80
2018-10-11T01:38:43.026Z,101502.44
2018-10-11T01:41:10.029Z,101502.82
2018-10-11T01:43:37.002Z,101498.37
2018-10-11T01:46:03.962Z,101496.22
2018-10-11T01:48:30.902Z,101500.29
2018-10-11T01:50:57.837Z,101499.38
2018-10-11T01:53:24.777Z,101485.97
2018-10-11T01:55:51.755Z,101484.20
2018-10-11T01:58:18.689Z,101480.28
2018-10-11T02:00:45.630Z,101475.36
2018-10-11T02:03:12.544Z,101478.39
2018-10-11T02:05:39.469Z,101474.27
2018-10-11T02:08:06.410Z,101471.17
2018-10-11T02:10:33.341Z,101468.58
2018-10-11T02:13:00.257Z,101469.28
2018-10-11T02:15:27.834Z,101466.45
2018-10-11T02:17:54.981Z,101472.52
2018-10-11T02:20:21.912Z,101468.78
2018-10-11T02:22:48.837Z,101461.69
2018-10-11T02:25:15.777Z,101453.02
2018-10-11T02:27:42.718Z,101453.61
2018-10-11T02:30:10.539Z,101442.12
2018-10-11T02:32:37.457Z,101441.48
2018-10-11T02:35:04.423Z,101443.16
2018-10-11T02:37:31.384Z,101428.96
2018-10-11T02:39:58.317Z,101428.25
2018-10-11T02:42:25.957Z,101418.98
2018-10-11T02:44:52.898Z,101417.09
2018-10-11T02:47:19.813Z,101405.81
2018-10-11T02:49:46.741Z,101404.14
2018-10-11T02:52:13.671Z,101397.75
2018-10-11T02:54:40.645Z,101398.39
2018-10-11T02:57:17.922Z,101397.18
2018-10-11T02:59:44.902Z,101390.08
2018-10-11T03:02:13.334Z,101386.95
2018-10-11T03:04:41.477Z,101395.34
2018-10-11T03:07:09.298Z,101397.23
2018-10-11T03:09:36.240Z,101399.08
2018-10-11T03:12:03.179Z,101404.61
2018-10-11T03:14:30.105Z,101399.19
2018-10-11T03:16:57.021Z,101398.22
2018-10-11T03:19:23.941Z,101409.92
2018-10-11T03:21:50.882Z,101409.42
2018-10-11T03:24:17.841Z,101409.72
2018-10-11T03:26:44.753Z,101402.98
2018-10-11T03:29:11.672Z,101401.72
2018-10-11T03:31:38.607Z,101387.09
2018-10-11T03:34:05.581Z,101389.27
2018-10-11T03:36:32.522Z,101383.92
2018-10-11T03:38:59.440Z,101382.89
2018-10-11T03:41:26.352Z,101385.28
2018-10-11T03:43:53.308Z,101372.14
2018-10-11T03:46:20.283Z,101371.55
2018-10-11T03:48:47.164Z,101374.44
2018-10-11T03:51:14.084Z,101370.14
2018-10-11T03:53:41.020Z,101377.56
2018-10-11T03:56:07.957Z,101374.72
2018-10-11T03:58:34.894Z,101373.89
2018-10-11T04:01:01.812Z,101374.92
2018-10-11T04:03:28.743Z,101382.23
2018-10-11T04:05:55.673Z,101385.44
2018-10-11T04:08:22.590Z,101384.09
2018-10-11T04:10:49.520Z,101378.73
2018-10-11T04:13:16.445Z,101373.52
2018-10-11T04:15:43.529Z,101369.45
2018-10-11T04:18:10.339Z,101364.31
2018-10-11T04:20:37.289Z,101358.97
2018-10-11T04:23:04.217Z,101351.80
2018-10-11T04:25:31.168Z,101342.70
2018-10-11T04:27:58.119Z,101344.38
2018-10-11T04:30:25.476Z,101344.77
2018-10-11T04:32:52.393Z,101344.66
2018-10-11T04:35:19.349Z,101342.48
2018-10-11T04:37:46.266Z,101332.68
2018-10-11T04:40:13.200Z,101330.89
2018-10-11T04:42:40.123Z,101336.16
2018-10-11T04:45:07.137Z,101334.16
2018-10-11T04:47:34.059Z,101339.26
2018-10-11T04:50:00.989Z,101344.06
2018-10-11T04:52:27.938Z,101346.13
2018-10-11T04:54:54.853Z,101354.95
2018-10-11T04:57:21.789Z,101351.60
2018-10-11T04:59:48.767Z,101357.64
2018-10-11T05:02:15.657Z,101356.97
2018-10-11T05:04:42.582Z,101352.75
2018-10-11T05:07:09.605Z,101354.81
2018-10-11T05:09:36.545Z,101358.87
2018-10-11T05:12:03.486Z,101362.50
2018-10-11T05:14:30.646Z,101366.56
2018-10-11T05:16:57.601Z,101363.41
2018-10-11T05:19:24.552Z,101369.86
2018-10-11T05:21:51.488Z,101377.83
2018-10-11T05:24:18.424Z,101377.33
2018-10-11T05:26:45.364Z,101381.71
2018-10-11T05:29:12.277Z,101385.63
2018-10-11T05:31:39.237Z,101385.18
2018-10-11T05:34:06.642Z,101387.89
2018-10-11T05:36:33.572Z,101387.97
2018-10-11T05:39:00.490Z,101385.64
2018-10-11T05:41:27.437Z,101382.29
2018-10-11T05:43:54.414Z,101385.05
2018-10-11T05:46:24.660Z,101384.60
2018-10-11T05:48:51.679Z,101384.48
2018-10-11T05:51:19.389Z,101383.63
2018-10-11T05:53:47.000Z,101382.80
2018-10-11T05:56:14.285Z,101381.50
2018-10-11T05:58:41.263Z,101381.17
2018-10-11T06:01:08.209Z,101376.47
2018-10-11T06:03:35.176Z,101375.44
2018-10-11T06:06:02.114Z,101374.41
2018-10-11T06:08:29.089Z,101376.09
2018-10-11T06:10:56.029Z,101378.63
2018-10-11T06:13:22.988Z,101376.79
2018-10-11T06:15:49.940Z,101374.61
2018-10-11T06:18:16.884Z,101378.67
2018-10-11T06:20:43.818Z,101384.41
2018-10-11T06:23:10.770Z,101376.62
2018-10-11T06:25:37.727Z,101372.36
2018-10-11T06:28:05.228Z,101362.30
2018-10-11T06:30:32.743Z,101365.21
2018-10-11T06:32:59.798Z,101367.72
2018-10-11T06:35:27.097Z,101369.84
2018-10-11T06:37:54.033Z,101366.42
2018-10-11T06:40:20.989Z,101375.14
2018-10-11T06:42:47.992Z,101366.61
2018-10-11T06:45:15.337Z,101379.70
2018-10-11T06:47:43.548Z,101366.41
2018-10-11T06:50:10.508Z,101355.91
2018-10-11T06:52:37.811Z,101365.41
2018-10-11T06:55:05.506Z,101365.47
2018-10-11T06:57:32.417Z,101349.55
2018-10-11T06:59:59.361Z,101363.57
2018-10-11T07:02:26.293Z,101368.54
2018-10-11T07:04:53.223Z,101364.31
2018-10-11T07:07:20.205Z,101358.55
2018-10-11T07:09:47.098Z,101350.79
2018-10-11T07:12:14.002Z,101351.97
2018-10-11T07:14:40.909Z,101355.47
2018-10-11T07:17:07.817Z,101363.56
2018-10-11T07:19:34.734Z,101362.45
2018-10-11T07:22:01.665Z,101363.66
2018-10-11T07:24:28.589Z,101363.07
2018-10-11T07:26:55.483Z,101354.77
2018-10-11T07:29:22.401Z,101342.89
2018-10-11T07:31:49.316Z,101352.36
2018-10-11T07:34:16.229Z,101355.09
2018-10-11T07:36:43.156Z,101352.39
2018-10-11T07:39:11.549Z,101346.34
2018-10-11T07:41:38.465Z,101345.39
2018-10-11T07:44:05.849Z,101344.75
2018-10-11T07:46:32.751Z,101339.72
2018-10-11T07:48:59.665Z,101332.81
2018-10-11T07:51:26.611Z,101329.14
2018-10-11T07:53:58.090Z,101342.30
2018-10-11T07:56:25.021Z,101341.55
2018-10-11T07:58:51.920Z,101348.34
2018-10-11T08:01:18.896Z,101350.09
2018-10-11T08:03:45.762Z,101345.67
2018-10-11T08:06:12.660Z,101348.53
2018-10-11T08:08:39.573Z,101344.73
2018-10-11T08:11:06.952Z,101348.13
2018-10-11T08:13:33.860Z,101347.58
2018-10-11T08:16:00.804Z,101337.40
2018-10-11T08:18:27.690Z,101325.50
2018-10-11T08:20:54.604Z,101329.05
2018-10-11T08:23:21.526Z,101326.43
2018-10-11T08:25:48.915Z,101311.22
2018-10-11T08:28:15.373Z,101297.72
2018-10-11T08:30:42.279Z,101310.59
2018-10-11T08:33:09.224Z,101316.19
2018-10-11T08:35:36.218Z,101309.95
2018-10-11T08:38:03.489Z,101299.00
2018-10-11T08:40:30.505Z,101302.78
2018-10-11T08:42:58.063Z,101296.05
2018-10-11T08:45:26.196Z,101292.38
2018-10-11T08:47:53.298Z,101303.04
2018-10-11T08:50:20.450Z,101306.77
2018-10-11T08:52:47.509Z,101313.47
2018-10-11T08:55:14.591Z,101321.84
2018-10-11T08:57:41.618Z,101323.84
2018-10-11T09:00:09.050Z,101328.84
2018-10-11T09:02:36.077Z,101322.03
2018-10-11T09:05:03.189Z,101322.71
2018-10-11T09:07:30.178Z,101329.93
2018-10-11T09:09:57.195Z,101339.16
2018-10-11T09:12:24.208Z,101333.41
2018-10-11T09:14:51.247Z,101329.73
2018-10-11T09:17:18.320Z,101320.68
2018-10-11T09:19:45.331Z,101327.75
2018-10-11T09:22:12.333Z,101345.61
2018-10-11T09:24:39.340Z,101341.59
2018-10-11T09:27:06.401Z,101343.30
2018-10-11T09:29:33.521Z,101327.97
2018-10-11T09:32:00.549Z,101330.77
2018-10-11T09:34:27.587Z,101325.55
2018-10-11T09:36:54.616Z,101345.33
2018-10-11T09:39:21.550Z,101332.37
2018-10-11T09:41:48.522Z,101338.33
2018-10-11T09:44:15.490Z,101359.13
2018-10-11T09:46:42.470Z,101353.12
2018-10-11T09:49:09.623Z,101362.98
2018-10-11T09:51:36.627Z,101352.84
2018-10-11T09:54:03.696Z,101350.45
2018-10-11T09:56:42.449Z,101348.95
2018-10-11T09:59:09.570Z,101348.57
2018-10-11T10:01:45.143Z,101306.20
2018-10-11T10:04:12.243Z,101350.02
2018-10-11T10:06:39.276Z,101339.93
2018-10-11T10:09:07.648Z,101336.60
2018-10-11T10:11:34.933Z,101335.72
2018-10-11T10:14:01.996Z,101334.20
2018-10-11T10:16:29.337Z,101324.40
2018-10-11T10:18:56.312Z,101331.73
2018-10-11T10:21:23.414Z,101342.24
2018-10-11T10:23:50.401Z,101346.53
2018-10-11T10:26:17.434Z,101347.13
2018-10-11T10:28:44.452Z,101344.80
2018-10-11T10:31:11.634Z,101338.65
2018-10-11T10:33:38.671Z,101350.23
2018-10-11T10:36:05.731Z,101338.23
2018-10-11T10:38:32.770Z,101334.61
2018-10-11T10:40:59.764Z,101321.01
2018-10-11T10:43:26.800Z,101325.31
2018-10-11T10:45:53.834Z,101314.74
2018-10-11T10:48:20.841Z,101299.83
2018-10-11T10:50:47.876Z,101301.00
2018-10-11T10:53:15.031Z,101300.83
2018-10-11T10:55:42.071Z,101301.31
2018-10-11T10:58:09.082Z,101296.41
2018-10-11T11:00:36.128Z,101291.29
2018-10-11T11:03:09.868Z,101291.47
2018-10-11T11:05:36.786Z,101283.84
2018-10-11T11:08:03.692Z,101286.45
2018-10-11T11:10:30.604Z,101268.33
2018-10-11T11:12:57.501Z,101273.98
2018-10-11T11:15:24.424Z,101271.24
2018-10-11T11:17:51.343Z,101268.76
2018-10-11T11:20:18.251Z,101263.06
2018-10-11T11:22:45.176Z,101268.03
2018-10-11T11:25:12.132Z,101260.25
2018-10-11T11:27:39.043Z,101251.53
2018-10-11T11:30:06.178Z,101252.21
2018-10-11T11:32:33.208Z,101259.39
2018-10-11T11:35:00.117Z,101257.81
2018-10-11T11:37:27.018Z,101257.61
2018-10-11T11:39:53.957Z,101258.52
2018-10-11T11:42:20.934Z,101260.34
2018-10-11T11:44:47.856Z,101255.51
2018-10-11T11:47:14.749Z,101252.03
2018-10-11T11:49:41.653Z,101246.78
2018-10-11T11:52:08.611Z,101245.11
2018-10-11T11:54:35.490Z,101248.73
2018-10-11T11:57:02.397Z,101231.94
2018-10-11T11:59:29.314Z,101239.05
2018-10-11T12:01:56.249Z,101239.97
2018-10-11T12:04:23.160Z,101236.37
2018-10-11T12:06:50.094Z,101220.28
2018-10-11T12:09:16.993Z,101225.42
2018-10-11T12:11:43.937Z,101220.29
2018-10-11T12:14:10.840Z,101222.20
2018-10-11T12:16:38.188Z,101216.45
2018-10-11T12:19:05.783Z,101207.57
2018-10-11T12:21:32.729Z,101217.77
2018-10-11T12:23:59.630Z,101213.64
2018-10-11T12:26:26.538Z,101213.33
2018-10-11T12:28:53.538Z,101228.28
2018-10-11T12:31:20.390Z,101237.89
2018-10-11T12:33:47.672Z,101245.35
2018-10-11T12:36:14.595Z,101255.88
2018-10-11T12:38:41.591Z,101253.21
2018-10-11T12:41:08.505Z,101249.61
2018-10-11T12:43:35.409Z,101249.84
2018-10-11T12:46:02.348Z,101248.62
2018-10-11T12:48:29.278Z,101245.80
2018-10-11T12:50:56.226Z,101246.53
2018-10-11T12:53:23.151Z,101254.55
2018-10-11T12:55:50.073Z,101260.34
2018-10-11T12:58:16.984Z,101257.58
2018-10-11T13:00:43.967Z,101262.19
2018-10-11T13:03:10.909Z,101255.64
2018-10-11T13:05:37.897Z,101261.95
2018-10-11T13:08:04.834Z,101254.21
2018-10-11T13:10:31.732Z,101239.09
2018-10-11T13:12:59.719Z,101236.98
2018-10-11T13:15:25.596Z,101234.05
2018-10-11T13:17:52.513Z,101239.55
2018-10-11T13:20:19.432Z,101231.52
2018-10-11T13:22:46.433Z,101237.75
2018-10-11T13:25:13.313Z,101235.81
2018-10-11T13:27:40.261Z,101231.59
2018-10-11T13:30:07.205Z,101229.06
2018-10-11T13:32:34.130Z,101218.88
2018-10-11T13:35:01.081Z,101225.13
2018-10-11T13:37:28.000Z,101220.68
2018-10-11T13:39:57.689Z,101219.76
2018-10-11T13:42:21.878Z,101229.63
2018-10-11T13:44:48.801Z,101222.23
2018-10-11T13:47:15.733Z,101223.59
2018-10-11T13:49:42.660Z,101222.98
2018-10-11T13:52:14.469Z,101231.20
2018-10-11T13:54:36.525Z,101232.24
2018-10-11T13:57:03.488Z,101235.21
2018-10-11T13:59:30.437Z,101242.08
2018-10-11T14:01:57.500Z,101241.41
2018-10-11T14:04:24.438Z,101244.94
2018-10-11T14:06:51.342Z,101245.68
2018-10-11T14:09:18.269Z,101244.87
2018-10-11T14:11:45.674Z,101247.89
2018-10-11T14:14:12.707Z,101244.36
2018-10-11T14:16:39.705Z,101234.66
2018-10-11T14:19:06.730Z,101236.75
2018-10-11T14:21:33.704Z,101228.23
2018-10-11T14:24:00.744Z,101225.75
2018-10-11T14:26:28.215Z,101216.34
2018-10-11T14:28:55.280Z,101206.91
2018-10-11T14:31:24.889Z,101208.78
2018-10-11T14:33:55.084Z,101209.55
2018-10-11T14:36:25.747Z,101206.91
2018-10-11T14:38:55.564Z,101205.52
2018-10-11T14:41:24.666Z,101204.30
2018-10-11T14:43:51.593Z,101210.00
2018-10-11T14:46:18.619Z,101213.03
2018-10-11T14:48:45.664Z,101208.88
2018-10-11T14:51:12.761Z,101202.50
2018-10-11T14:53:39.860Z,101198.86
2018-10-11T14:56:06.877Z,101203.51
2018-10-11T14:58:33.854Z,101208.18
2018-10-11T15:01:00.793Z,101206.05
2018-10-11T15:03:27.688Z,101202.62
2018-10-11T15:05:54.810Z,101207.72
2018-10-11T15:08:21.605Z,101209.30
2018-10-11T15:10:48.524Z,101214.47
2018-10-11T15:13:15.442Z,101218.46
2018-10-11T15:15:42.395Z,101213.45
2018-10-11T15:18:09.273Z,101213.66
2018-10-11T15:20:36.206Z,101214.92
2018-10-11T15:23:03.153Z,101217.02
2018-10-11T15:25:30.154Z,101222.36
2018-10-11T15:27:57.041Z,101225.36
2018-10-11T15:30:23.956Z,101227.75
2018-10-11T15:32:50.868Z,101233.70
2018-10-11T15:35:17.789Z,101229.20
2018-10-11T15:37:44.714Z,101222.52
2018-10-11T15:40:11.641Z,101231.42
2018-10-11T15:42:38.610Z,101229.11
2018-10-11T15:45:06.814Z,101230.61
2018-10-11T15:47:33.764Z,101230.21
2018-10-11T15:50:02.435Z,101236.47
2018-10-11T15:52:29.500Z,101232.81
2018-10-11T15:54:56.396Z,101230.23
2018-10-11T15:57:23.374Z,101229.86
2018-10-11T15:59:50.350Z,101232.09
2018-10-11T16:02:17.270Z,101243.59
2018-10-11T16:04:44.206Z,101245.84
2018-10-11T16:07:11.129Z,101243.20
2018-10-11T16:09:38.049Z,101242.22
2018-10-11T16:12:05.047Z,101240.44
2018-10-11T16:14:31.991Z,101244.88
2018-10-11T16:16:58.933Z,101247.92
2018-10-11T16:19:26.025Z,101251.08
2018-10-11T16:21:52.986Z,101252.31
2018-10-11T16:24:19.910Z,101258.08
2018-10-11T16:26:46.863Z,101260.94
2018-10-11T16:29:13.788Z,101260.81
2018-10-11T16:31:40.739Z,101270.20
2018-10-11T16:34:08.157Z,101271.89
2018-10-11T16:36:35.135Z,101272.06
2018-10-11T16:39:02.122Z,101273.95
2018-10-11T16:41:29.053Z,101278.70
2018-10-11T16:43:55.990Z,101278.72
2018-10-11T16:46:22.917Z,101283.76
2018-10-11T16:48:49.863Z,101275.00
2018-10-11T16:51:16.808Z,101273.34
2018-10-11T16:53:43.765Z,101279.44
2018-10-11T16:56:10.729Z,101286.16
2018-10-11T16:58:37.703Z,101298.09
2018-10-11T17:01:04.622Z,101295.77
2018-10-11T17:03:31.581Z,101295.21
2018-10-11T17:05:58.515Z,101299.16
2018-10-11T17:08:25.465Z,101298.83
2018-10-11T17:10:52.426Z,101298.20
2018-10-11T17:13:19.369Z,101297.58
2018-10-11T17:15:46.305Z,101296.69
2018-10-11T17:18:13.555Z,101294.33
2018-10-11T17:20:40.496Z,101294.92
2018-10-11T17:23:07.439Z,101293.61
2018-10-11T17:25:34.361Z,101299.19
2018-10-11T17:28:01.283Z,101299.42
2018-10-11T17:30:28.210Z,101299.23
2018-10-11T17:32:55.125Z,101301.80
2018-10-11T17:35:22.103Z,101296.02
2018-10-11T17:37:49.014Z,101299.29
2018-10-11T17:40:15.958Z,101292.34
2018-10-11T17:42:43.185Z,101286.23
2018-10-11T17:45:10.145Z,101280.74
2018-10-11T17:47:37.109Z,101282.37
2018-10-11T17:50:04.397Z,101282.14
2018-10-11T17:52:31.292Z,101285.28
2018-10-11T17:54:58.438Z,101281.52
2018-10-11T17:57:26.005Z,101282.71
2018-10-11T17:59:52.976Z,101279.14
2018-10-11T18:02:21.129Z,101284.30
2018-10-11T18:04:48.474Z,101279.51
2018-10-11T18:07:15.501Z,101285.80
2018-10-11T18:09:42.429Z,101288.83
2018-10-11T18:12:09.368Z,101293.33
2018-10-11T18:14:36.283Z,101293.66
2018-10-11T18:17:03.197Z,101290.56
2018-10-11T18:19:30.133Z,101292.27
2018-10-11T18:21:57.133Z,101299.17
2018-10-11T18:24:24.063Z,101293.75
2018-10-11T18:26:51.097Z,101284.89
2018-10-11T18:29:18.090Z,101304.53
2018-10-11T18:31:45.001Z,101301.37
2018-10-11T18:34:11.973Z,101301.52
2018-10-11T18:36:38.885Z,101295.23
2018-10-11T18:39:09.027Z,101300.89
2018-10-11T18:41:35.996Z,101300.67
2018-10-11T18:44:02.928Z,101297.13
2018-10-11T18:46:29.841Z,101300.58
2018-10-11T18:48:56.773Z,101297.13
2018-10-11T18:51:23.685Z,101295.88
2018-10-11T18:53:50.617Z,101304.75
2018-10-11T18:56:17.608Z,101305.69
2018-10-11T18:58:45.243Z,101310.70
2018-10-11T19:01:12.149Z,101301.61
2018-10-11T19:03:39.094Z,101297.95
2018-10-11T19:06:06.021Z,101295.77
2018-10-11T19:08:32.941Z,101300.16
2018-10-11T19:11:00.468Z,101306.00
2018-10-11T19:13:27.422Z,101310.47
2018-10-11T19:15:54.346Z,101320.40
2018-10-11T19:18:21.253Z,101320.14
2018-10-11T19:20:48.280Z,101322.95
2018-10-11T19:23:15.213Z,101318.19
2018-10-11T19:25:43.499Z,101316.16
2018-10-11T19:28:10.433Z,101318.75
2018-10-11T19:30:37.936Z,101308.70
2018-10-11T19:33:05.492Z,101314.02
2018-10-11T19:35:32.551Z,101301.93
2018-10-11T19:37:59.465Z,101307.63
2018-10-11T19:40:26.395Z,101306.67
2018-10-11T19:42:53.423Z,101306.76
2018-10-11T19:45:20.444Z,101312.69
2018-10-11T19:47:47.383Z,101316.73
2018-10-11T19:50:14.337Z,101316.70
2018-10-11T19:52:41.350Z,101312.78
2018-10-11T19:55:08.409Z,101312.42
2018-10-11T19:57:35.374Z,101313.23
2018-10-11T20:00:02.368Z,101306.75
2018-10-11T20:02:29.356Z,101315.05
2018-10-11T20:04:56.283Z,101318.37
2018-10-11T20:07:24.251Z,101320.14
2018-10-11T20:09:51.205Z,101319.45
2018-10-11T20:12:18.113Z,101309.40
2018-10-11T20:14:45.095Z,101319.27
2018-10-11T20:17:12.307Z,101317.36
2018-10-11T20:19:39.262Z,101314.01
2018-10-11T20:22:08.090Z,101317.81
2018-10-11T20:24:35.037Z,101307.81
2018-10-11T20:27:02.442Z,101321.13
2018-10-11T20:29:29.809Z,101322.86
2018-10-11T20:31:56.781Z,101331.19
2018-10-11T20:34:23.725Z,101318.95
2018-10-11T20:36:50.679Z,101329.95
2018-10-11T20:39:17.603Z,101321.18
2018-10-11T20:41:44.522Z,101318.24
2018-10-11T20:44:11.466Z,101317.39
2018-10-11T20:46:38.394Z,101325.27
2018-10-11T20:49:05.321Z,101327.70
2018-10-11T20:51:32.282Z,101331.44
2018-10-11T20:53:59.172Z,101335.17
2018-10-11T20:56:26.203Z,101340.67
2018-10-11T20:58:53.177Z,101344.45
2018-10-11T21:01:20.103Z,101341.48
2018-10-11T21:03:47.042Z,101334.14
2018-10-11T21:06:13.979Z,101340.62
2018-10-11T21:08:40.911Z,101344.19
2018-10-11T21:11:07.850Z,101336.95
2018-10-11T21:13:34.781Z,101341.41
2018-10-11T21:16:01.693Z,101342.48
2018-10-11T21:18:28.629Z,101343.52
2018-10-11T21:20:55.559Z,101336.50
2018-10-11T21:23:22.487Z,101336.50
2018-10-11T21:25:49.412Z,101325.73
2018-10-11T21:28:16.401Z,101331.84
2018-10-11T21:30:43.256Z,101329.14
2018-10-11T21:33:10.233Z,101324.42
2018-10-11T21:35:37.221Z,101328.48
2018-10-11T21:38:04.476Z,101322.82
2018-10-11T21:40:31.418Z,101322.67
2018-10-11T21:42:58.337Z,101321.47
2018-10-11T21:45:25.277Z,101319.97
2018-10-11T21:47:52.204Z,101321.56
2018-10-11T21:50:19.145Z,101330.04
2018-10-11T21:52:46.109Z,101325.93
2018-10-11T21:55:13.055Z,101326.14
2018-10-11T21:57:39.980Z,101328.22
2018-10-11T22:00:07.023Z,101328.06
2018-10-11T22:02:33.953Z,101327.60
2018-10-11T22:05:00.901Z,101338.94
2018-10-11T22:07:27.843Z,101342.33
2018-10-11T22:09:54.813Z,101342.05
2018-10-11T22:12:21.865Z,101336.31
2018-10-11T22:14:48.864Z,101335.03
2018-10-11T22:17:15.776Z,101330.78
2018-10-11T22:19:43.652Z,101326.81
2018-10-11T22:22:10.607Z,101323.42
2018-10-11T22:24:37.538Z,101323.19
2018-10-11T22:27:04.485Z,101323.84
2018-10-11T22:29:32.437Z,101318.44
2018-10-11T22:32:07.377Z,101322.74
2018-10-11T22:34:35.553Z,101318.98
2018-10-11T22:37:02.554Z,101330.81
2018-10-11T22:39:29.573Z,101326.06
2018-10-11T22:41:56.621Z,101330.48
2018-10-11T22:44:23.617Z,101327.20
2018-10-11T22:46:50.599Z,101326.55
2018-10-11T22:49:17.580Z,101320.00
2018-10-11T22:51:44.525Z,101329.86
2018-10-11T22:54:11.493Z,101334.05
2018-10-11T22:56:48.365Z,101331.54
2018-10-11T22:59:15.305Z,101326.35
2018-10-11T23:01:42.269Z,101329.63
2018-10-11T23:04:09.221Z,101328.55
2018-10-11T23:06:36.167Z,101327.25
2018-10-11T23:09:04.332Z,101330.48
2018-10-11T23:11:31.270Z,101338.72
2018-10-11T23:13:58.186Z,101339.16
2018-10-11T23:16:25.151Z,101331.91
2018-10-11T23:18:52.070Z,101342.27
2018-10-11T23:21:19.060Z,101335.17
2018-10-11T23:23:45.989Z,101331.77
2018-10-11T23:26:12.926Z,101329.18
2018-10-11T23:28:40.397Z,101322.41
2018-10-11T23:31:07.633Z,101320.62
2018-10-11T23:33:34.580Z,101325.00
2018-10-11T23:36:01.549Z,101326.47
2018-10-11T23:38:28.504Z,101319.21
2018-10-11T23:40:55.437Z,101319.86
2018-10-11T23:43:22.389Z,101323.44
2018-10-11T23:45:49.320Z,101321.97
2018-10-11T23:48:16.256Z,101318.12
2018-10-11T23:50:43.180Z,101318.77
2018-10-11T23:53:10.122Z,101320.18
2018-10-11T23:55:37.074Z,101323.50
2018-10-11T23:58:04.216Z,101330.27
